Komokwa — ZJL8536 — position and weather

sailwx.info

Track history (hours):
 
Tides and Currents Weather Stations Pressure Air Temp Water Temp Dewpoint Dewpoint Depression Visibility Wind Speed Wind Dir Waves Ship Positions

Komokwa

Last reported at 2015-May-12 10:13 UTC. Time now 2015-May-24 03:18 UTC.
Position N 43°32' E 007°01'.
Warning: this ship's position is 11 days out of date.

Length 37 m; draft 2.3 m.

Type: Ship. MMSI: 378111827.

Date/timePositionNaut miles runAvg speedWind from/ knotsBaromVisibWave heightAir tempDewpointWater temp
2015-May-12 10:13N 43°32' E 007°01'6 9.4
2015-May-12 09:32N 43°27' E 006°57'19 9.6
2015-May-12 07:33N 43°10' E 006°43'13 9.3
2015-May-12 06:12N 43°01' E 006°33'6 9.6
2015-May-12 05:33N 42°57' E 006°26'10 9.3
2015-May-12 04:28N 42°52' E 006°13'108 9.8
2015-May-11 17:23N 42°05' E 004°02'28 9.6
2015-May-11 14:30N 41°51' E 003°29'1110.1
2015-May-11 13:22N 41°46' E 003°15'1910.0
2015-May-11 11:25N 41°38' E 002°52'13 9.5
2015-May-11 10:03N 41°31' E 002°37'5 9.6
2015-May-11 09:31N 41°29' E 002°31'9 9.7
2015-May-11 08:33N 41°25' E 002°20'7 3.3
2015-May-11 06:33N 41°23' E 002°11'0 0.0
2015-May-11 02:15N 41°23' E 002°11'0 0.0
2015-May-10 23:15N 41°23' E 002°11'0 0.0
2015-May-10 22:27N 41°23' E 002°11'0 0.0
2015-May-10 21:21N 41°23' E 002°11'0 0.0
2015-May-10 14:15N 41°23' E 002°11'0 0.0
2015-May-10 02:33N 41°23' E 002°11'0 0.0
2015-May-08 11:33N 41°23' E 002°11'0 0.0
2015-May-07 01:15N 41°23' E 002°11'0 0.0
2015-May-06 21:27N 41°23' E 002°11'0 0.0
2015-May-06 18:32N 41°23' E 002°11'19 8.4
2015-May-06 16:18N 41°04' E 002°12'7 9.8
2015-May-06 15:33N 40°57' E 002°13'10 9.8
2015-May-06 14:33N 40°47' E 002°13'10 9.7
2015-May-06 13:33N 40°37' E 002°14'9 9.5
2015-May-06 12:33N 40°28' E 002°14'9 9.4
2015-May-06 11:33N 40°18' E 002°15'10 9.6
2015-May-06 10:33N 40°09' E 002°16'1010.0
2015-May-06 09:33N 39°59' E 002°16'1010.2
2015-May-06 08:33N 39°48' E 002°17'10 9.7
2015-May-06 07:33N 39°39' E 002°17'9 8.5
2015-May-06 06:32N 39°31' E 002°22'8 8.5
2015-May-06 05:33N 39°28' E 002°33'7 6.6
2015-May-06 04:33N 39°34' E 002°38'0 0.0
2015-May-06 03:32N 39°34' E 002°38'0 0.0
2015-May-06 02:32N 39°34' E 002°38'0 0.0
2015-May-06 01:32N 39°34' E 002°38'0 0.0
2015-May-06 00:32N 39°34' E 002°38'0 0.0
2015-May-05 23:32N 39°34' E 002°38'0 0.0
2015-May-05 22:32N 39°34' E 002°38'0 0.0
2015-May-05 21:32N 39°34' E 002°38'0 0.0
2015-May-05 20:32N 39°34' E 002°38'0 0.0
2015-May-05 19:32N 39°34' E 002°38'0 0.0
2015-May-05 18:32N 39°34' E 002°38'0 0.0
2015-May-05 17:32N 39°34' E 002°38'0 0.0
2015-May-05 16:32N 39°34' E 002°38'0 0.0
2015-May-05 15:32N 39°34' E 002°38'0 0.0
2015-May-05 14:32N 39°34' E 002°38'0 0.0
2015-May-05 13:32N 39°34' E 002°38'0 0.0
2015-May-05 12:32N 39°34' E 002°38'0 0.0
2015-May-05 11:32N 39°34' E 002°38'0 0.0
2015-May-05 10:32N 39°34' E 002°38'0 0.0
2015-May-05 09:32N 39°34' E 002°38'0 0.0
2015-May-05 08:32N 39°34' E 002°38'0 0.0
2015-May-05 07:32N 39°34' E 002°38'0 0.0
2015-May-05 06:32N 39°34' E 002°38'0 0.0
2015-May-05 05:32N 39°34' E 002°38'0 0.0
2015-May-05 04:32N 39°34' E 002°38'0 0.0
2015-May-05 03:32N 39°34' E 002°38'0 0.0
2015-May-05 02:32N 39°34' E 002°38'0 0.0
2015-May-05 01:32N 39°34' E 002°38'0 0.0
2015-May-05 00:32N 39°34' E 002°38'0 0.0
2015-May-04 23:32N 39°34' E 002°38'0 0.0
2015-May-04 22:32N 39°34' E 002°38'0 0.0
2015-May-04 21:32N 39°34' E 002°38'0 0.0
2015-May-04 20:32N 39°34' E 002°38'0 0.0
2015-May-04 19:32N 39°34' E 002°38'0 0.0
2015-May-04 18:32N 39°34' E 002°38'0 0.0
2015-May-04 17:32N 39°34' E 002°38'0 0.0
2015-May-04 16:32N 39°34' E 002°38'0 0.0
2015-May-04 15:32N 39°34' E 002°38'0 0.0
2015-May-04 14:32N 39°34' E 002°38'0 0.0
2015-May-04 13:26N 39°34' E 002°38'0 0.0
2015-May-04 12:32N 39°34' E 002°38'0 0.0
2015-May-04 11:32N 39°34' E 002°38'0 0.0
2015-May-04 10:32N 39°34' E 002°38'0 0.0
2015-May-04 09:32N 39°34' E 002°38'0 0.0
2015-May-04 08:32N 39°34' E 002°38'0 0.0
2015-May-04 07:32N 39°34' E 002°38'0 0.0
2015-May-04 06:32N 39°34' E 002°38'0 0.0
2015-May-04 05:32N 39°34' E 002°38'0 0.0
2015-May-04 04:32N 39°34' E 002°38'0 0.0
2015-May-04 03:32N 39°34' E 002°38'0 0.0
2015-May-04 02:32N 39°34' E 002°38'0 0.0
2015-May-04 01:32N 39°34' E 002°38'0 0.0
2015-May-04 00:32N 39°34' E 002°38'0 0.0
2015-May-03 23:32N 39°34' E 002°38'0 0.0
2015-May-03 22:32N 39°34' E 002°38'0 0.0
2015-May-03 21:32N 39°34' E 002°38'0 0.0
2015-May-03 20:32N 39°34' E 002°38'0 0.0
2015-May-03 19:32N 39°34' E 002°38'0 0.0
2015-May-03 18:32N 39°34' E 002°38'0 0.0
2015-May-03 17:32N 39°34' E 002°38'0 0.0
2015-May-03 16:32N 39°34' E 002°38'0 0.0
2015-May-03 15:32N 39°34' E 002°38'0 0.0
2015-May-03 14:32N 39°34' E 002°38'0 0.0
2015-May-03 13:32N 39°34' E 002°38'0 0.0
2015-May-03 12:32N 39°34' E 002°38'0 0.0
2015-May-03 11:32N 39°34' E 002°38'0 0.0
2015-May-03 10:32N 39°34' E 002°38'0 0.0
2015-May-03 09:32N 39°34' E 002°38'0 0.0
2015-May-03 08:32N 39°34' E 002°38'0 0.0
2015-May-03 07:32N 39°34' E 002°38'0 0.0
2015-May-03 06:23N 39°34' E 002°38'0 0.0
2015-May-03 05:26N 39°34' E 002°38'0 0.0
2015-May-03 04:32N 39°34' E 002°38'0 0.0
2015-May-03 03:33N 39°34' E 002°38'0 0.0
2015-May-03 02:26N 39°34' E 002°38'0 0.0
2015-May-03 01:32N 39°34' E 002°38'0 0.0
2015-May-03 00:32N 39°34' E 002°38'0 0.0
2015-May-02 23:32N 39°34' E 002°38'0 0.0
2015-May-02 22:32N 39°34' E 002°38'0 0.0
2015-May-02 21:32N 39°34' E 002°38'0 0.0
2015-May-02 20:32N 39°34' E 002°38'0 0.0
2015-May-02 19:32N 39°34' E 002°38'0 0.0
2015-May-02 18:32N 39°34' E 002°38'0 0.0
2015-May-02 17:32N 39°34' E 002°38'0 0.0
2015-May-02 16:32N 39°34' E 002°38'0 0.0
2015-May-02 15:32N 39°34' E 002°38'0 0.0
2015-May-02 14:32N 39°34' E 002°38'0 0.0
2015-May-02 13:32N 39°34' E 002°38'0 0.0
2015-May-02 12:32N 39°34' E 002°38'0 0.0
2015-May-02 11:32N 39°34' E 002°38'0 0.0
2015-May-02 10:32N 39°34' E 002°38'  
Track history (hours):
 
Tides and Currents Weather Stations Pressure Air Temp Water Temp Dewpoint Dewpoint Depression Visibility Wind Speed Wind Dir Waves Ship Positions

Komokwa

Last reported at 2015-May-12 10:13 UTC. Time now 2015-May-24 03:18 UTC.
Position N 43°32' E 007°01'.
Warning: this ship's position is 11 days out of date.

Length 37 m; draft 2.3 m.

Type: Ship. MMSI: 378111827.

Date/timePositionNaut miles runAvg speedWind from/ knotsBaromVisibWave heightAir tempDewpointWater temp
2015-May-12 10:13N 43°32' E 007°01'6 9.4
2015-May-12 09:32N 43°27' E 006°57'19 9.6
2015-May-12 07:33N 43°10' E 006°43'13 9.3
2015-May-12 06:12N 43°01' E 006°33'6 9.6
2015-May-12 05:33N 42°57' E 006°26'10 9.3
2015-May-12 04:28N 42°52' E 006°13'108 9.8
2015-May-11 17:23N 42°05' E 004°02'28 9.6
2015-May-11 14:30N 41°51' E 003°29'1110.1
2015-May-11 13:22N 41°46' E 003°15'1910.0
2015-May-11 11:25N 41°38' E 002°52'13 9.5
2015-May-11 10:03N 41°31' E 002°37'5 9.6
2015-May-11 09:31N 41°29' E 002°31'9 9.7
2015-May-11 08:33N 41°25' E 002°20'7 3.3
2015-May-11 06:33N 41°23' E 002°11'0 0.0
2015-May-11 02:15N 41°23' E 002°11'0 0.0
2015-May-10 23:15N 41°23' E 002°11'0 0.0
2015-May-10 22:27N 41°23' E 002°11'0 0.0
2015-May-10 21:21N 41°23' E 002°11'0 0.0
2015-May-10 14:15N 41°23' E 002°11'0 0.0
2015-May-10 02:33N 41°23' E 002°11'0 0.0
2015-May-08 11:33N 41°23' E 002°11'0 0.0
2015-May-07 01:15N 41°23' E 002°11'0 0.0
2015-May-06 21:27N 41°23' E 002°11'0 0.0
2015-May-06 18:32N 41°23' E 002°11'19 8.4
2015-May-06 16:18N 41°04' E 002°12'7 9.8
2015-May-06 15:33N 40°57' E 002°13'10 9.8
2015-May-06 14:33N 40°47' E 002°13'10 9.7
2015-May-06 13:33N 40°37' E 002°14'9 9.5
2015-May-06 12:33N 40°28' E 002°14'9 9.4
2015-May-06 11:33N 40°18' E 002°15'10 9.6
2015-May-06 10:33N 40°09' E 002°16'1010.0
2015-May-06 09:33N 39°59' E 002°16'1010.2
2015-May-06 08:33N 39°48' E 002°17'10 9.7
2015-May-06 07:33N 39°39' E 002°17'9 8.5
2015-May-06 06:32N 39°31' E 002°22'8 8.5
2015-May-06 05:33N 39°28' E 002°33'7 6.6
2015-May-06 04:33N 39°34' E 002°38'0 0.0
2015-May-06 03:32N 39°34' E 002°38'0 0.0
2015-May-06 02:32N 39°34' E 002°38'0 0.0
2015-May-06 01:32N 39°34' E 002°38'0 0.0
2015-May-06 00:32N 39°34' E 002°38'0 0.0
2015-May-05 23:32N 39°34' E 002°38'0 0.0
2015-May-05 22:32N 39°34' E 002°38'0 0.0
2015-May-05 21:32N 39°34' E 002°38'0 0.0
2015-May-05 20:32N 39°34' E 002°38'0 0.0
2015-May-05 19:32N 39°34' E 002°38'0 0.0
2015-May-05 18:32N 39°34' E 002°38'0 0.0
2015-May-05 17:32N 39°34' E 002°38'0 0.0
2015-May-05 16:32N 39°34' E 002°38'0 0.0
2015-May-05 15:32N 39°34' E 002°38'0 0.0
2015-May-05 14:32N 39°34' E 002°38'0 0.0
2015-May-05 13:32N 39°34' E 002°38'0 0.0
2015-May-05 12:32N 39°34' E 002°38'0 0.0
2015-May-05 11:32N 39°34' E 002°38'0 0.0
2015-May-05 10:32N 39°34' E 002°38'0 0.0
2015-May-05 09:32N 39°34' E 002°38'0 0.0
2015-May-05 08:32N 39°34' E 002°38'0 0.0
2015-May-05 07:32N 39°34' E 002°38'0 0.0
2015-May-05 06:32N 39°34' E 002°38'0 0.0
2015-May-05 05:32N 39°34' E 002°38'0 0.0
2015-May-05 04:32N 39°34' E 002°38'0 0.0
2015-May-05 03:32N 39°34' E 002°38'0 0.0
2015-May-05 02:32N 39°34' E 002°38'0 0.0
2015-May-05 01:32N 39°34' E 002°38'0 0.0
2015-May-05 00:32N 39°34' E 002°38'0 0.0
2015-May-04 23:32N 39°34' E 002°38'0 0.0
2015-May-04 22:32N 39°34' E 002°38'0 0.0
2015-May-04 21:32N 39°34' E 002°38'0 0.0
2015-May-04 20:32N 39°34' E 002°38'0 0.0
2015-May-04 19:32N 39°34' E 002°38'0 0.0
2015-May-04 18:32N 39°34' E 002°38'0 0.0
2015-May-04 17:32N 39°34' E 002°38'0 0.0
2015-May-04 16:32N 39°34' E 002°38'0 0.0
2015-May-04 15:32N 39°34' E 002°38'0 0.0
2015-May-04 14:32N 39°34' E 002°38'0 0.0
2015-May-04 13:26N 39°34' E 002°38'0 0.0
2015-May-04 12:32N 39°34' E 002°38'0 0.0
2015-May-04 11:32N 39°34' E 002°38'0 0.0
2015-May-04 10:32N 39°34' E 002°38'0 0.0
2015-May-04 09:32N 39°34' E 002°38'0 0.0
2015-May-04 08:32N 39°34' E 002°38'0 0.0
2015-May-04 07:32N 39°34' E 002°38'0 0.0
2015-May-04 06:32N 39°34' E 002°38'0 0.0
2015-May-04 05:32N 39°34' E 002°38'0 0.0
2015-May-04 04:32N 39°34' E 002°38'0 0.0
2015-May-04 03:32N 39°34' E 002°38'0 0.0
2015-May-04 02:32N 39°34' E 002°38'0 0.0
2015-May-04 01:32N 39°34' E 002°38'0 0.0
2015-May-04 00:32N 39°34' E 002°38'0 0.0
2015-May-03 23:32N 39°34' E 002°38'0 0.0
2015-May-03 22:32N 39°34' E 002°38'0 0.0
2015-May-03 21:32N 39°34' E 002°38'0 0.0
2015-May-03 20:32N 39°34' E 002°38'0 0.0
2015-May-03 19:32N 39°34' E 002°38'0 0.0
2015-May-03 18:32N 39°34' E 002°38'0 0.0
2015-May-03 17:32N 39°34' E 002°38'0 0.0
2015-May-03 16:32N 39°34' E 002°38'0 0.0
2015-May-03 15:32N 39°34' E 002°38'0 0.0
2015-May-03 14:32N 39°34' E 002°38'0 0.0
2015-May-03 13:32N 39°34' E 002°38'0 0.0
2015-May-03 12:32N 39°34' E 002°38'0 0.0
2015-May-03 11:32N 39°34' E 002°38'0 0.0
2015-May-03 10:32N 39°34' E 002°38'0 0.0
2015-May-03 09:32N 39°34' E 002°38'0 0.0
2015-May-03 08:32N 39°34' E 002°38'0 0.0
2015-May-03 07:32N 39°34' E 002°38'0 0.0
2015-May-03 06:23N 39°34' E 002°38'0 0.0
2015-May-03 05:26N 39°34' E 002°38'0 0.0
2015-May-03 04:32N 39°34' E 002°38'0 0.0
2015-May-03 03:33N 39°34' E 002°38'0 0.0
2015-May-03 02:26N 39°34' E 002°38'0 0.0
2015-May-03 01:32N 39°34' E 002°38'0 0.0
2015-May-03 00:32N 39°34' E 002°38'0 0.0
2015-May-02 23:32N 39°34' E 002°38'0 0.0
2015-May-02 22:32N 39°34' E 002°38'0 0.0
2015-May-02 21:32N 39°34' E 002°38'0 0.0
2015-May-02 20:32N 39°34' E 002°38'0 0.0
2015-May-02 19:32N 39°34' E 002°38'0 0.0
2015-May-02 18:32N 39°34' E 002°38'0 0.0
2015-May-02 17:32N 39°34' E 002°38'0 0.0
2015-May-02 16:32N 39°34' E 002°38'0 0.0
2015-May-02 15:32N 39°34' E 002°38'0 0.0
2015-May-02 14:32N 39°34' E 002°38'0 0.0
2015-May-02 13:32N 39°34' E 002°38'0 0.0
2015-May-02 12:32N 39°34' E 002°38'0 0.0
2015-May-02 11:32N 39°34' E 002°38'0 0.0
2015-May-02 10:32N 39°34' E 002°38'  

Dump ship's entire track history